sensor_id;sensor_type;location;lat;lon;timestamp;P1;durP1;ratioP1;P2;durP2;ratioP2
80565;SDS011;69915;54.862;10.730;2024-03-22T00:01:09;18.63;;;5.60;;
80565;SDS011;69915;54.862;10.730;2024-03-22T00:03:34;16.35;;;5.78;;
80565;SDS011;69915;54.862;10.730;2024-03-22T00:06:00;16.23;;;5.57;;
80565;SDS011;69915;54.862;10.730;2024-03-22T00:08:25;14.93;;;6.75;;
80565;SDS011;69915;54.862;10.730;2024-03-22T00:10:51;13.50;;;5.85;;
80565;SDS011;69915;54.862;10.730;2024-03-22T00:13:16;16.33;;;6.13;;
80565;SDS011;69915;54.862;10.730;2024-03-22T00:15:42;12.38;;;5.53;;
80565;SDS011;69915;54.862;10.730;2024-03-22T00:18:09;18.98;;;6.07;;
80565;SDS011;69915;54.862;10.730;2024-03-22T00:20:35;14.38;;;5.53;;
80565;SDS011;69915;54.862;10.730;2024-03-22T00:23:00;15.32;;;7.03;;
80565;SDS011;69915;54.862;10.730;2024-03-22T00:25:26;18.15;;;7.43;;
80565;SDS011;69915;54.862;10.730;2024-03-22T00:27:51;14.45;;;6.20;;
80565;SDS011;69915;54.862;10.730;2024-03-22T00:30:17;15.27;;;6.90;;
80565;SDS011;69915;54.862;10.730;2024-03-22T00:32:42;21.48;;;7.63;;
80565;SDS011;69915;54.862;10.730;2024-03-22T00:35:12;16.50;;;7.13;;
80565;SDS011;69915;54.862;10.730;2024-03-22T00:37:37;16.80;;;6.53;;
80565;SDS011;69915;54.862;10.730;2024-03-22T00:40:03;18.42;;;7.32;;
80565;SDS011;69915;54.862;10.730;2024-03-22T00:42:29;18.77;;;6.38;;
80565;SDS011;69915;54.862;10.730;2024-03-22T00:44:55;13.77;;;6.63;;
80565;SDS011;69915;54.862;10.730;2024-03-22T00:47:22;15.93;;;7.10;;
80565;SDS011;69915;54.862;10.730;2024-03-22T00:49:47;13.70;;;6.68;;
80565;SDS011;69915;54.862;10.730;2024-03-22T00:52:13;16.42;;;6.40;;
80565;SDS011;69915;54.862;10.730;2024-03-22T00:54:38;19.55;;;7.40;;
80565;SDS011;69915;54.862;10.730;2024-03-22T00:57:05;21.00;;;7.82;;
80565;SDS011;69915;54.862;10.730;2024-03-22T00:59:32;17.20;;;6.85;;
80565;SDS011;69915;54.862;10.730;2024-03-22T01:01:58;17.45;;;6.85;;
80565;SDS011;69915;54.862;10.730;2024-03-22T01:04:23;20.58;;;8.18;;
80565;SDS011;69915;54.862;10.730;2024-03-22T01:06:49;19.98;;;7.22;;
80565;SDS011;69915;54.862;10.730;2024-03-22T01:09:15;21.23;;;8.52;;
80565;SDS011;69915;54.862;10.730;2024-03-22T01:11:40;15.18;;;7.78;;
80565;SDS011;69915;54.862;10.730;2024-03-22T01:14:06;19.92;;;7.55;;
80565;SDS011;69915;54.862;10.730;2024-03-22T01:16:31;16.42;;;7.70;;
80565;SDS011;69915;54.862;10.730;2024-03-22T01:18:57;23.38;;;6.88;;
80565;SDS011;69915;54.862;10.730;2024-03-22T01:21:23;17.48;;;7.68;;
80565;SDS011;69915;54.862;10.730;2024-03-22T01:23:51;16.10;;;7.45;;
80565;SDS011;69915;54.862;10.730;2024-03-22T01:26:17;19.10;;;7.85;;
80565;SDS011;69915;54.862;10.730;2024-03-22T01:28:43;17.17;;;6.20;;
80565;SDS011;69915;54.862;10.730;2024-03-22T01:31:08;21.77;;;8.90;;
80565;SDS011;69915;54.862;10.730;2024-03-22T01:33:34;17.52;;;8.98;;
80565;SDS011;69915;54.862;10.730;2024-03-22T01:35:59;15.73;;;6.80;;
80565;SDS011;69915;54.862;10.730;2024-03-22T01:38:25;18.90;;;7.15;;
80565;SDS011;69915;54.862;10.730;2024-03-22T01:40:50;17.02;;;7.55;;
80565;SDS011;69915;54.862;10.730;2024-03-22T01:43:16;18.45;;;7.40;;
80565;SDS011;69915;54.862;10.730;2024-03-22T01:45:41;18.25;;;7.47;;
80565;SDS011;69915;54.862;10.730;2024-03-22T01:48:07;13.93;;;7.95;;
80565;SDS011;69915;54.862;10.730;2024-03-22T01:50:33;20.08;;;8.68;;
80565;SDS011;69915;54.862;10.730;2024-03-22T01:52:59;17.40;;;8.25;;
80565;SDS011;69915;54.862;10.730;2024-03-22T01:55:26;17.83;;;8.35;;
80565;SDS011;69915;54.862;10.730;2024-03-22T01:57:52;16.52;;;7.78;;
80565;SDS011;69915;54.862;10.730;2024-03-22T02:00:18;16.95;;;7.47;;
80565;SDS011;69915;54.862;10.730;2024-03-22T02:02:44;15.90;;;7.90;;
80565;SDS011;69915;54.862;10.730;2024-03-22T02:05:13;18.13;;;8.60;;
80565;SDS011;69915;54.862;10.730;2024-03-22T02:07:41;14.88;;;7.57;;
80565;SDS011;69915;54.862;10.730;2024-03-22T02:10:07;14.02;;;6.80;;
80565;SDS011;69915;54.862;10.730;2024-03-22T02:12:36;14.95;;;7.78;;
80565;SDS011;69915;54.862;10.730;2024-03-22T02:15:02;17.77;;;8.70;;
80565;SDS011;69915;54.862;10.730;2024-03-22T02:17:28;25.20;;;7.78;;
80565;SDS011;69915;54.862;10.730;2024-03-22T02:19:54;18.60;;;8.15;;
80565;SDS011;69915;54.862;10.730;2024-03-22T02:22:19;16.13;;;8.65;;
80565;SDS011;69915;54.862;10.730;2024-03-22T02:24:45;18.38;;;7.97;;
80565;SDS011;69915;54.862;10.730;2024-03-22T02:27:10;16.13;;;7.22;;
80565;SDS011;69915;54.862;10.730;2024-03-22T02:29:36;22.02;;;9.00;;
80565;SDS011;69915;54.862;10.730;2024-03-22T02:32:01;22.38;;;8.52;;
80565;SDS011;69915;54.862;10.730;2024-03-22T02:34:28;18.75;;;9.35;;
80565;SDS011;69915;54.862;10.730;2024-03-22T02:36:54;20.17;;;8.90;;
80565;SDS011;69915;54.862;10.730;2024-03-22T02:39:19;21.40;;;8.25;;
80565;SDS011;69915;54.862;10.730;2024-03-22T02:41:45;23.48;;;8.85;;
80565;SDS011;69915;54.862;10.730;2024-03-22T02:44:10;18.55;;;9.38;;
80565;SDS011;69915;54.862;10.730;2024-03-22T02:46:36;18.13;;;7.75;;
80565;SDS011;69915;54.862;10.730;2024-03-22T02:49:01;21.92;;;9.70;;
80565;SDS011;69915;54.862;10.730;2024-03-22T02:51:27;19.27;;;8.57;;
80565;SDS011;69915;54.862;10.730;2024-03-22T02:53:53;18.88;;;8.63;;
80565;SDS011;69915;54.862;10.730;2024-03-22T02:56:18;24.33;;;11.23;;
80565;SDS011;69915;54.862;10.730;2024-03-22T02:58:44;18.83;;;9.63;;
80565;SDS011;69915;54.862;10.730;2024-03-22T03:01:09;20.48;;;9.98;;
80565;SDS011;69915;54.862;10.730;2024-03-22T03:03:35;21.30;;;10.20;;
80565;SDS011;69915;54.862;10.730;2024-03-22T03:06:00;17.80;;;9.32;;
80565;SDS011;69915;54.862;10.730;2024-03-22T03:08:26;19.73;;;9.48;;
80565;SDS011;69915;54.862;10.730;2024-03-22T03:10:52;24.13;;;11.55;;
80565;SDS011;69915;54.862;10.730;2024-03-22T03:13:18;20.65;;;10.07;;
80565;SDS011;69915;54.862;10.730;2024-03-22T03:15:43;27.30;;;12.50;;
80565;SDS011;69915;54.862;10.730;2024-03-22T03:18:09;21.67;;;10.75;;
80565;SDS011;69915;54.862;10.730;2024-03-22T03:20:35;25.33;;;11.23;;
80565;SDS011;69915;54.862;10.730;2024-03-22T03:23:00;26.52;;;10.90;;
80565;SDS011;69915;54.862;10.730;2024-03-22T03:25:26;26.48;;;10.40;;
80565;SDS011;69915;54.862;10.730;2024-03-22T03:27:52;29.35;;;10.52;;
80565;SDS011;69915;54.862;10.730;2024-03-22T03:30:18;28.27;;;13.25;;
80565;SDS011;69915;54.862;10.730;2024-03-22T03:32:43;25.98;;;10.88;;
80565;SDS011;69915;54.862;10.730;2024-03-22T03:35:09;26.90;;;12.23;;
80565;SDS011;69915;54.862;10.730;2024-03-22T03:37:35;28.92;;;11.80;;
80565;SDS011;69915;54.862;10.730;2024-03-22T03:40:00;24.38;;;11.43;;
80565;SDS011;69915;54.862;10.730;2024-03-22T03:42:26;27.63;;;12.20;;
80565;SDS011;69915;54.862;10.730;2024-03-22T03:44:52;27.98;;;11.55;;
80565;SDS011;69915;54.862;10.730;2024-03-22T03:47:17;24.05;;;11.55;;
80565;SDS011;69915;54.862;10.730;2024-03-22T03:49:45;30.52;;;13.45;;
80565;SDS011;69915;54.862;10.730;2024-03-22T03:55:09;22.55;;;10.65;;
80565;SDS011;69915;54.862;10.730;2024-03-22T03:57:35;33.90;;;12.93;;
80565;SDS011;69915;54.862;10.730;2024-03-22T04:00:01;25.55;;;11.85;;
80565;SDS011;69915;54.862;10.730;2024-03-22T04:02:27;29.00;;;10.63;;
80565;SDS011;69915;54.862;10.730;2024-03-22T04:04:52;25.90;;;12.35;;
80565;SDS011;69915;54.862;10.730;2024-03-22T04:07:21;28.67;;;12.02;;
80565;SDS011;69915;54.862;10.730;2024-03-22T04:09:47;24.90;;;11.18;;
80565;SDS011;69915;54.862;10.730;2024-03-22T04:12:12;26.30;;;13.20;;
80565;SDS011;69915;54.862;10.730;2024-03-22T04:14:38;29.70;;;13.18;;
80565;SDS011;69915;54.862;10.730;2024-03-22T04:17:04;29.88;;;13.73;;
80565;SDS011;69915;54.862;10.730;2024-03-22T04:19:30;26.52;;;13.45;;
80565;SDS011;69915;54.862;10.730;2024-03-22T04:21:55;34.05;;;14.18;;
80565;SDS011;69915;54.862;10.730;2024-03-22T04:24:21;26.58;;;13.07;;
80565;SDS011;69915;54.862;10.730;2024-03-22T04:26:46;29.55;;;13.25;;
80565;SDS011;69915;54.862;10.730;2024-03-22T04:29:12;32.53;;;13.07;;
80565;SDS011;69915;54.862;10.730;2024-03-22T04:31:37;30.70;;;12.90;;
80565;SDS011;69915;54.862;10.730;2024-03-22T04:34:03;27.33;;;13.30;;
80565;SDS011;69915;54.862;10.730;2024-03-22T04:36:30;31.70;;;14.88;;
80565;SDS011;69915;54.862;10.730;2024-03-22T04:38:56;28.27;;;14.13;;
80565;SDS011;69915;54.862;10.730;2024-03-22T04:41:22;28.02;;;13.93;;
80565;SDS011;69915;54.862;10.730;2024-03-22T04:43:48;30.50;;;13.52;;
80565;SDS011;69915;54.862;10.730;2024-03-22T04:46:13;28.35;;;13.82;;
80565;SDS011;69915;54.862;10.730;2024-03-22T04:48:39;30.02;;;14.55;;
80565;SDS011;69915;54.862;10.730;2024-03-22T04:51:04;28.20;;;13.40;;
80565;SDS011;69915;54.862;10.730;2024-03-22T04:53:30;29.67;;;13.50;;
80565;SDS011;69915;54.862;10.730;2024-03-22T04:55:55;38.42;;;15.55;;
80565;SDS011;69915;54.862;10.730;2024-03-22T04:58:21;32.60;;;14.48;;
80565;SDS011;69915;54.862;10.730;2024-03-22T05:00:47;36.67;;;14.55;;
80565;SDS011;69915;54.862;10.730;2024-03-22T05:03:14;30.10;;;14.43;;
80565;SDS011;69915;54.862;10.730;2024-03-22T05:05:41;34.70;;;15.90;;
80565;SDS011;69915;54.862;10.730;2024-03-22T05:08:07;36.95;;;14.88;;
80565;SDS011;69915;54.862;10.730;2024-03-22T05:10:33;32.13;;;15.32;;
80565;SDS011;69915;54.862;10.730;2024-03-22T05:12:59;29.88;;;14.98;;
80565;SDS011;69915;54.862;10.730;2024-03-22T05:15:25;34.47;;;15.88;;
80565;SDS011;69915;54.862;10.730;2024-03-22T05:17:52;35.00;;;13.20;;
80565;SDS011;69915;54.862;10.730;2024-03-22T05:20:18;35.58;;;16.45;;
80565;SDS011;69915;54.862;10.730;2024-03-22T05:22:44;36.13;;;17.73;;
80565;SDS011;69915;54.862;10.730;2024-03-22T05:25:10;38.65;;;16.23;;
80565;SDS011;69915;54.862;10.730;2024-03-22T05:27:35;38.85;;;15.98;;
80565;SDS011;69915;54.862;10.730;2024-03-22T05:30:02;36.75;;;16.65;;
80565;SDS011;69915;54.862;10.730;2024-03-22T05:32:29;39.78;;;17.23;;
80565;SDS011;69915;54.862;10.730;2024-03-22T05:34:55;38.78;;;16.83;;
80565;SDS011;69915;54.862;10.730;2024-03-22T05:37:20;34.60;;;17.52;;
80565;SDS011;69915;54.862;10.730;2024-03-22T05:39:46;34.67;;;16.42;;
80565;SDS011;69915;54.862;10.730;2024-03-22T05:42:12;34.33;;;15.80;;
80565;SDS011;69915;54.862;10.730;2024-03-22T05:44:37;41.30;;;17.13;;
80565;SDS011;69915;54.862;10.730;2024-03-22T05:47:03;30.35;;;14.98;;
80565;SDS011;69915;54.862;10.730;2024-03-22T05:49:29;35.47;;;18.27;;
80565;SDS011;69915;54.862;10.730;2024-03-22T05:51:54;37.80;;;16.90;;
80565;SDS011;69915;54.862;10.730;2024-03-22T05:54:20;46.65;;;19.85;;
80565;SDS011;69915;54.862;10.730;2024-03-22T05:56:46;36.50;;;16.77;;
80565;SDS011;69915;54.862;10.730;2024-03-22T05:59:11;43.10;;;16.73;;
80565;SDS011;69915;54.862;10.730;2024-03-22T06:01:37;33.03;;;14.88;;
80565;SDS011;69915;54.862;10.730;2024-03-22T06:04:04;40.80;;;18.58;;
80565;SDS011;69915;54.862;10.730;2024-03-22T06:06:31;41.33;;;18.33;;
80565;SDS011;69915;54.862;10.730;2024-03-22T06:08:58;35.70;;;14.40;;
80565;SDS011;69915;54.862;10.730;2024-03-22T06:11:25;39.60;;;17.50;;
80565;SDS011;69915;54.862;10.730;2024-03-22T06:13:51;35.28;;;16.52;;
80565;SDS011;69915;54.862;10.730;2024-03-22T06:16:16;39.20;;;16.08;;
80565;SDS011;69915;54.862;10.730;2024-03-22T06:18:42;39.95;;;17.15;;
80565;SDS011;69915;54.862;10.730;2024-03-22T06:21:07;37.03;;;15.32;;
80565;SDS011;69915;54.862;10.730;2024-03-22T06:23:33;30.27;;;14.57;;
80565;SDS011;69915;54.862;10.730;2024-03-22T06:25:59;39.88;;;16.27;;
80565;SDS011;69915;54.862;10.730;2024-03-22T06:28:26;35.72;;;16.83;;
80565;SDS011;69915;54.862;10.730;2024-03-22T06:30:53;36.90;;;16.00;;
80565;SDS011;69915;54.862;10.730;2024-03-22T06:33:19;36.40;;;15.68;;
80565;SDS011;69915;54.862;10.730;2024-03-22T06:35:45;33.90;;;16.30;;
80565;SDS011;69915;54.862;10.730;2024-03-22T06:38:11;35.55;;;16.55;;
80565;SDS011;69915;54.862;10.730;2024-03-22T06:40:37;28.90;;;14.10;;
80565;SDS011;69915;54.862;10.730;2024-03-22T06:43:03;39.35;;;17.52;;
80565;SDS011;69915;54.862;10.730;2024-03-22T06:45:29;32.35;;;14.02;;
80565;SDS011;69915;54.862;10.730;2024-03-22T06:47:54;32.45;;;14.32;;
80565;SDS011;69915;54.862;10.730;2024-03-22T06:50:20;26.90;;;13.50;;
80565;SDS011;69915;54.862;10.730;2024-03-22T06:52:52;34.33;;;15.77;;
80565;SDS011;69915;54.862;10.730;2024-03-22T06:55:19;27.88;;;13.27;;
80565;SDS011;69915;54.862;10.730;2024-03-22T06:57:48;31.77;;;15.18;;
80565;SDS011;69915;54.862;10.730;2024-03-22T07:00:15;31.35;;;13.90;;
80565;SDS011;69915;54.862;10.730;2024-03-22T07:02:41;35.63;;;12.77;;
80565;SDS011;69915;54.862;10.730;2024-03-22T07:05:07;34.78;;;14.98;;
80565;SDS011;69915;54.862;10.730;2024-03-22T07:07:34;31.83;;;15.30;;
80565;SDS011;69915;54.862;10.730;2024-03-22T07:10:00;27.10;;;13.48;;
80565;SDS011;69915;54.862;10.730;2024-03-22T07:12:27;25.95;;;12.85;;
80565;SDS011;69915;54.862;10.730;2024-03-22T07:14:53;27.15;;;13.85;;
80565;SDS011;69915;54.862;10.730;2024-03-22T07:17:18;25.58;;;12.88;;
80565;SDS011;69915;54.862;10.730;2024-03-22T07:22:14;24.25;;;11.35;;
80565;SDS011;69915;54.862;10.730;2024-03-22T07:24:40;23.02;;;10.02;;
80565;SDS011;69915;54.862;10.730;2024-03-22T07:27:06;24.23;;;12.50;;
80565;SDS011;69915;54.862;10.730;2024-03-22T07:29:32;20.75;;;10.27;;
80565;SDS011;69915;54.862;10.730;2024-03-22T07:31:57;27.10;;;12.25;;
80565;SDS011;69915;54.862;10.730;2024-03-22T07:34:23;30.98;;;12.55;;
80565;SDS011;69915;54.862;10.730;2024-03-22T07:36:48;27.65;;;11.85;;
80565;SDS011;69915;54.862;10.730;2024-03-22T07:39:14;22.70;;;11.57;;
80565;SDS011;69915;54.862;10.730;2024-03-22T07:41:40;22.25;;;10.50;;
80565;SDS011;69915;54.862;10.730;2024-03-22T07:44:05;22.30;;;11.23;;
80565;SDS011;69915;54.862;10.730;2024-03-22T07:46:31;24.05;;;12.80;;
80565;SDS011;69915;54.862;10.730;2024-03-22T07:48:56;21.90;;;10.57;;
80565;SDS011;69915;54.862;10.730;2024-03-22T07:51:22;22.23;;;10.45;;
80565;SDS011;69915;54.862;10.730;2024-03-22T07:53:48;18.40;;;9.80;;
80565;SDS011;69915;54.862;10.730;2024-03-22T07:56:14;21.58;;;10.52;;
80565;SDS011;69915;54.862;10.730;2024-03-22T07:58:40;21.90;;;10.20;;
80565;SDS011;69915;54.862;10.730;2024-03-22T08:01:06;19.42;;;9.85;;
80565;SDS011;69915;54.862;10.730;2024-03-22T08:03:32;19.45;;;10.07;;
80565;SDS011;69915;54.862;10.730;2024-03-22T08:05:57;16.75;;;8.70;;
80565;SDS011;69915;54.862;10.730;2024-03-22T08:08:23;21.40;;;10.90;;
80565;SDS011;69915;54.862;10.730;2024-03-22T08:10:48;17.73;;;9.85;;
80565;SDS011;69915;54.862;10.730;2024-03-22T08:13:14;20.05;;;10.18;;
80565;SDS011;69915;54.862;10.730;2024-03-22T08:15:40;16.15;;;8.63;;
80565;SDS011;69915;54.862;10.730;2024-03-22T08:18:06;18.15;;;9.40;;
80565;SDS011;69915;54.862;10.730;2024-03-22T08:20:31;20.45;;;9.60;;
80565;SDS011;69915;54.862;10.730;2024-03-22T08:22:59;15.75;;;9.23;;
80565;SDS011;69915;54.862;10.730;2024-03-22T08:25:25;16.48;;;8.35;;
80565;SDS011;69915;54.862;10.730;2024-03-22T08:27:50;19.10;;;9.43;;
80565;SDS011;69915;54.862;10.730;2024-03-22T08:30:20;17.45;;;9.38;;
80565;SDS011;69915;54.862;10.730;2024-03-22T08:32:46;15.00;;;7.88;;
80565;SDS011;69915;54.862;10.730;2024-03-22T08:35:11;16.00;;;8.80;;
80565;SDS011;69915;54.862;10.730;2024-03-22T08:37:37;15.63;;;8.63;;
80565;SDS011;69915;54.862;10.730;2024-03-22T08:40:03;13.18;;;7.75;;
80565;SDS011;69915;54.862;10.730;2024-03-22T08:42:29;18.17;;;9.52;;
80565;SDS011;69915;54.862;10.730;2024-03-22T08:44:55;17.75;;;8.23;;
80565;SDS011;69915;54.862;10.730;2024-03-22T08:47:21;17.52;;;8.40;;
80565;SDS011;69915;54.862;10.730;2024-03-22T08:49:46;13.93;;;7.53;;
80565;SDS011;69915;54.862;10.730;2024-03-22T08:52:12;15.40;;;8.00;;
80565;SDS011;69915;54.862;10.730;2024-03-22T08:54:37;14.68;;;7.43;;
80565;SDS011;69915;54.862;10.730;2024-03-22T08:57:03;14.52;;;7.30;;
80565;SDS011;69915;54.862;10.730;2024-03-22T08:59:29;14.50;;;8.02;;
80565;SDS011;69915;54.862;10.730;2024-03-22T09:01:54;17.10;;;7.53;;
80565;SDS011;69915;54.862;10.730;2024-03-22T09:04:20;14.77;;;7.50;;
80565;SDS011;69915;54.862;10.730;2024-03-22T09:06:45;16.08;;;8.55;;
80565;SDS011;69915;54.862;10.730;2024-03-22T09:09:11;15.73;;;7.32;;
80565;SDS011;69915;54.862;10.730;2024-03-22T09:11:37;13.45;;;6.80;;
80565;SDS011;69915;54.862;10.730;2024-03-22T09:14:03;15.50;;;7.63;;
80565;SDS011;69915;54.862;10.730;2024-03-22T09:16:28;13.15;;;6.57;;
80565;SDS011;69915;54.862;10.730;2024-03-22T09:18:55;11.65;;;6.70;;
80565;SDS011;69915;54.862;10.730;2024-03-22T09:21:21;10.93;;;6.78;;
80565;SDS011;69915;54.862;10.730;2024-03-22T09:23:46;13.55;;;6.22;;
80565;SDS011;69915;54.862;10.730;2024-03-22T09:26:12;15.60;;;6.72;;
80565;SDS011;69915;54.862;10.730;2024-03-22T09:28:38;12.85;;;5.75;;
80565;SDS011;69915;54.862;10.730;2024-03-22T09:31:04;13.40;;;6.28;;
80565;SDS011;69915;54.862;10.730;2024-03-22T09:33:32;12.70;;;6.43;;
80565;SDS011;69915;54.862;10.730;2024-03-22T09:35:58;10.57;;;5.43;;
80565;SDS011;69915;54.862;10.730;2024-03-22T09:38:24;13.32;;;5.03;;
80565;SDS011;69915;54.862;10.730;2024-03-22T09:40:49;11.75;;;5.65;;
80565;SDS011;69915;54.862;10.730;2024-03-22T09:43:19;10.95;;;5.55;;
80565;SDS011;69915;54.862;10.730;2024-03-22T09:45:45;10.18;;;4.88;;
80565;SDS011;69915;54.862;10.730;2024-03-22T09:48:12;13.18;;;5.63;;
80565;SDS011;69915;54.862;10.730;2024-03-22T09:50:39;9.57;;;4.07;;
80565;SDS011;69915;54.862;10.730;2024-03-22T09:53:06;9.63;;;5.05;;
80565;SDS011;69915;54.862;10.730;2024-03-22T09:55:33;9.73;;;4.43;;
80565;SDS011;69915;54.862;10.730;2024-03-22T09:58:00;11.05;;;4.57;;
80565;SDS011;69915;54.862;10.730;2024-03-22T10:00:27;7.72;;;4.15;;
80565;SDS011;69915;54.862;10.730;2024-03-22T10:02:52;8.65;;;4.28;;
80565;SDS011;69915;54.862;10.730;2024-03-22T10:05:19;10.73;;;4.70;;
80565;SDS011;69915;54.862;10.730;2024-03-22T10:07:44;8.80;;;4.28;;
80565;SDS011;69915;54.862;10.730;2024-03-22T10:10:10;7.70;;;4.30;;
80565;SDS011;69915;54.862;10.730;2024-03-22T10:12:36;7.55;;;4.45;;
80565;SDS011;69915;54.862;10.730;2024-03-22T10:15:02;8.82;;;4.18;;
80565;SDS011;69915;54.862;10.730;2024-03-22T10:17:29;8.18;;;2.78;;
80565;SDS011;69915;54.862;10.730;2024-03-22T10:19:55;7.75;;;3.72;;
80565;SDS011;69915;54.862;10.730;2024-03-22T10:22:21;9.55;;;3.78;;
80565;SDS011;69915;54.862;10.730;2024-03-22T10:24:46;7.53;;;4.20;;
80565;SDS011;69915;54.862;10.730;2024-03-22T10:27:12;7.13;;;3.53;;
80565;SDS011;69915;54.862;10.730;2024-03-22T10:29:38;7.50;;;3.67;;
80565;SDS011;69915;54.862;10.730;2024-03-22T10:32:04;7.32;;;4.00;;
80565;SDS011;69915;54.862;10.730;2024-03-22T10:34:31;7.88;;;3.30;;
80565;SDS011;69915;54.862;10.730;2024-03-22T10:36:59;7.35;;;3.60;;
80565;SDS011;69915;54.862;10.730;2024-03-22T10:39:29;6.90;;;3.28;;
80565;SDS011;69915;54.862;10.730;2024-03-22T10:41:56;7.78;;;3.00;;
80565;SDS011;69915;54.862;10.730;2024-03-22T10:44:21;5.45;;;2.95;;
80565;SDS011;69915;54.862;10.730;2024-03-22T10:46:47;8.27;;;4.25;;
80565;SDS011;69915;54.862;10.730;2024-03-22T10:49:17;7.53;;;2.83;;
80565;SDS011;69915;54.862;10.730;2024-03-22T10:51:46;5.95;;;2.97;;
80565;SDS011;69915;54.862;10.730;2024-03-22T10:54:21;8.07;;;3.67;;
80565;SDS011;69915;54.862;10.730;2024-03-22T10:59:35;6.93;;;2.55;;
80565;SDS011;69915;54.862;10.730;2024-03-22T11:02:04;4.80;;;3.10;;
80565;SDS011;69915;54.862;10.730;2024-03-22T11:04:32;5.50;;;2.53;;
80565;SDS011;69915;54.862;10.730;2024-03-22T11:06:58;5.75;;;2.85;;
80565;SDS011;69915;54.862;10.730;2024-03-22T11:09:25;4.32;;;2.03;;
80565;SDS011;69915;54.862;10.730;2024-03-22T11:11:51;4.85;;;2.15;;
80565;SDS011;69915;54.862;10.730;2024-03-22T11:14:18;6.40;;;2.72;;
80565;SDS011;69915;54.862;10.730;2024-03-22T11:16:45;5.70;;;2.80;;
80565;SDS011;69915;54.862;10.730;2024-03-22T11:19:11;4.93;;;2.55;;
80565;SDS011;69915;54.862;10.730;2024-03-22T11:21:37;6.53;;;2.33;;
80565;SDS011;69915;54.862;10.730;2024-03-22T11:24:03;4.47;;;2.40;;
80565;SDS011;69915;54.862;10.730;2024-03-22T11:26:31;5.63;;;2.63;;
80565;SDS011;69915;54.862;10.730;2024-03-22T11:28:58;6.47;;;2.42;;
80565;SDS011;69915;54.862;10.730;2024-03-22T11:31:23;4.82;;;2.40;;
80565;SDS011;69915;54.862;10.730;2024-03-22T11:33:55;4.85;;;2.25;;
80565;SDS011;69915;54.862;10.730;2024-03-22T11:36:22;6.03;;;2.50;;
80565;SDS011;69915;54.862;10.730;2024-03-22T11:38:48;4.63;;;1.90;;
80565;SDS011;69915;54.862;10.730;2024-03-22T11:41:19;5.20;;;2.80;;
80565;SDS011;69915;54.862;10.730;2024-03-22T11:43:49;5.97;;;2.22;;
80565;SDS011;69915;54.862;10.730;2024-03-22T11:46:16;6.95;;;3.05;;
80565;SDS011;69915;54.862;10.730;2024-03-22T11:48:42;4.68;;;2.20;;
80565;SDS011;69915;54.862;10.730;2024-03-22T11:51:09;6.20;;;2.88;;
80565;SDS011;69915;54.862;10.730;2024-03-22T11:53:35;7.40;;;3.25;;
80565;SDS011;69915;54.862;10.730;2024-03-22T11:56:02;7.60;;;3.03;;
80565;SDS011;69915;54.862;10.730;2024-03-22T11:58:31;6.70;;;3.80;;
80565;SDS011;69915;54.862;10.730;2024-03-22T12:00:56;7.43;;;3.13;;
80565;SDS011;69915;54.862;10.730;2024-03-22T12:03:22;7.25;;;3.20;;
80565;SDS011;69915;54.862;10.730;2024-03-22T12:05:48;5.45;;;3.22;;
80565;SDS011;69915;54.862;10.730;2024-03-22T12:08:16;7.20;;;3.03;;
80565;SDS011;69915;54.862;10.730;2024-03-22T12:10:44;6.82;;;2.92;;
80565;SDS011;69915;54.862;10.730;2024-03-22T12:13:10;6.90;;;3.20;;
80565;SDS011;69915;54.862;10.730;2024-03-22T12:15:36;7.95;;;3.60;;
80565;SDS011;69915;54.862;10.730;2024-03-22T12:18:02;7.10;;;3.42;;
80565;SDS011;69915;54.862;10.730;2024-03-22T12:20:28;6.53;;;2.80;;
80565;SDS011;69915;54.862;10.730;2024-03-22T12:22:54;5.85;;;3.03;;
80565;SDS011;69915;54.862;10.730;2024-03-22T12:25:20;6.10;;;2.55;;
80565;SDS011;69915;54.862;10.730;2024-03-22T12:27:46;6.15;;;2.58;;
80565;SDS011;69915;54.862;10.730;2024-03-22T12:30:12;7.97;;;3.28;;
80565;SDS011;69915;54.862;10.730;2024-03-22T12:32:38;7.57;;;2.72;;
80565;SDS011;69915;54.862;10.730;2024-03-22T12:35:03;5.75;;;2.25;;
80565;SDS011;69915;54.862;10.730;2024-03-22T12:37:29;6.70;;;2.13;;
80565;SDS011;69915;54.862;10.730;2024-03-22T12:39:55;6.10;;;2.45;;
80565;SDS011;69915;54.862;10.730;2024-03-22T12:42:20;7.22;;;3.17;;
80565;SDS011;69915;54.862;10.730;2024-03-22T12:44:46;7.18;;;2.60;;
80565;SDS011;69915;54.862;10.730;2024-03-22T12:47:12;6.70;;;2.67;;
80565;SDS011;69915;54.862;10.730;2024-03-22T12:49:37;4.70;;;2.13;;
80565;SDS011;69915;54.862;10.730;2024-03-22T12:52:03;4.82;;;1.90;;
80565;SDS011;69915;54.862;10.730;2024-03-22T12:54:29;5.43;;;2.35;;
80565;SDS011;69915;54.862;10.730;2024-03-22T12:56:55;4.63;;;1.70;;
80565;SDS011;69915;54.862;10.730;2024-03-22T12:59:20;4.63;;;1.77;;
80565;SDS011;69915;54.862;10.730;2024-03-22T13:01:46;3.92;;;1.95;;
80565;SDS011;69915;54.862;10.730;2024-03-22T13:04:12;4.95;;;1.75;;
80565;SDS011;69915;54.862;10.730;2024-03-22T13:06:37;7.60;;;2.28;;
80565;SDS011;69915;54.862;10.730;2024-03-22T13:09:03;4.88;;;1.63;;
80565;SDS011;69915;54.862;10.730;2024-03-22T13:11:30;3.60;;;1.75;;
80565;SDS011;69915;54.862;10.730;2024-03-22T13:13:57;4.80;;;1.90;;
80565;SDS011;69915;54.862;10.730;2024-03-22T13:16:22;7.93;;;2.55;;
80565;SDS011;69915;54.862;10.730;2024-03-22T13:18:48;5.88;;;2.33;;
80565;SDS011;69915;54.862;10.730;2024-03-22T13:21:14;3.40;;;1.60;;
80565;SDS011;69915;54.862;10.730;2024-03-22T13:23:39;7.15;;;1.65;;
80565;SDS011;69915;54.862;10.730;2024-03-22T13:26:05;3.08;;;1.73;;
80565;SDS011;69915;54.862;10.730;2024-03-22T13:28:32;7.50;;;1.52;;
80565;SDS011;69915;54.862;10.730;2024-03-22T13:31:04;5.78;;;1.65;;
80565;SDS011;69915;54.862;10.730;2024-03-22T13:33:33;8.60;;;1.80;;
80565;SDS011;69915;54.862;10.730;2024-03-22T13:36:00;10.43;;;3.03;;
80565;SDS011;69915;54.862;10.730;2024-03-22T13:38:26;8.30;;;2.78;;
80565;SDS011;69915;54.862;10.730;2024-03-22T13:40:57;8.93;;;3.05;;
80565;SDS011;69915;54.862;10.730;2024-03-22T13:43:25;9.27;;;1.98;;
80565;SDS011;69915;54.862;10.730;2024-03-22T13:45:52;8.30;;;2.92;;
80565;SDS011;69915;54.862;10.730;2024-03-22T13:48:22;8.27;;;2.22;;
80565;SDS011;69915;54.862;10.730;2024-03-22T13:50:53;7.60;;;2.10;;
80565;SDS011;69915;54.862;10.730;2024-03-22T13:55:47;13.07;;;4.45;;
80565;SDS011;69915;54.862;10.730;2024-03-22T13:58:13;13.43;;;2.70;;
80565;SDS011;69915;54.862;10.730;2024-03-22T14:00:39;11.38;;;3.00;;
80565;SDS011;69915;54.862;10.730;2024-03-22T14:03:05;16.63;;;2.50;;
80565;SDS011;69915;54.862;10.730;2024-03-22T14:05:31;12.35;;;3.55;;
80565;SDS011;69915;54.862;10.730;2024-03-22T14:07:57;16.38;;;2.53;;
80565;SDS011;69915;54.862;10.730;2024-03-22T14:10:24;10.73;;;3.05;;
80565;SDS011;69915;54.862;10.730;2024-03-22T14:12:52;7.38;;;2.25;;
80565;SDS011;69915;54.862;10.730;2024-03-22T14:15:18;14.35;;;3.45;;
80565;SDS011;69915;54.862;10.730;2024-03-22T14:17:44;13.57;;;2.20;;
80565;SDS011;69915;54.862;10.730;2024-03-22T14:20:10;13.63;;;2.83;;
80565;SDS011;69915;54.862;10.730;2024-03-22T14:22:39;15.23;;;2.92;;
80565;SDS011;69915;54.862;10.730;2024-03-22T14:25:06;11.20;;;2.15;;